Time;durP1;ratioP1;P1;durP2;ratioP2;P2;SDS_P1;SDS_P2;PMS_P1;PMS_P2;Temp;Humidity;BMP_temperature;BMP_pressure;BME280_temperature;BME280_humidity;BME280_pressure;Samples;Min_cycle;Max_cycle;Signal;HPM_P1;HPM_P2
2023/05/20 05:02:19;;;;;;;5.28;3.25;;;13.30;99.90;;;;;;5456512;23;20057;-69
2023/05/20 05:04:45;;;;;;;6.63;3.80;;;13.40;99.90;;;;;;4905588;29;20032;-69
2023/05/20 05:07:11;;;;;;;5.38;3.97;;;13.40;99.90;;;;;;4896006;29;20040;-70
2023/05/20 05:09:36;;;;;;;6.38;4.38;;;13.50;99.90;;;;;;4880631;29;20067;-70
2023/05/20 05:12:02;;;;;;;6.32;3.55;;;13.60;99.90;;;;;;4890197;29;20025;-70
2023/05/20 05:14:28;;;;;;;5.93;3.92;;;13.80;99.90;;;;;;4908755;29;20020;-69
2023/05/20 05:16:54;;;;;;;6.05;3.67;;;13.90;99.90;;;;;;4881166;29;20035;-70
2023/05/20 05:19:20;;;;;;;6.35;3.85;;;14.00;99.90;;;;;;4897950;29;20025;-70
2023/05/20 05:21:47;;;;;;;5.75;3.67;;;14.10;99.90;;;;;;4881519;29;20265;-73
2023/05/20 05:24:13;;;;;;;6.30;3.65;;;14.30;99.90;;;;;;4891364;29;20036;-70
2023/05/20 05:26:39;;;;;;;6.63;3.67;;;14.40;99.90;;;;;;4881697;29;20025;-69
2023/05/20 05:29:05;;;;;;;6.30;3.63;;;14.60;99.90;;;;;;4890318;29;20154;-70
2023/05/20 05:31:31;;;;;;;5.68;3.42;;;14.60;99.90;;;;;;4873461;29;20028;-69
2023/05/20 05:33:57;;;;;;;4.97;3.80;;;14.70;99.90;;;;;;4872713;29;20029;-69
2023/05/20 05:36:24;;;;;;;4.68;3.03;;;14.80;99.90;;;;;;4876656;29;20062;-69
2023/05/20 05:38:50;;;;;;;6.40;3.47;;;15.00;99.90;;;;;;4873146;29;20061;-69
2023/05/20 05:41:16;;;;;;;5.15;3.45;;;15.10;99.90;;;;;;4873766;29;20037;-68
2023/05/20 05:43:42;;;;;;;5.53;3.50;;;15.20;99.90;;;;;;4872623;29;20370;-69
2023/05/20 05:46:08;;;;;;;6.72;3.28;;;15.30;99.90;;;;;;4890083;29;20035;-70
2023/05/20 05:48:35;;;;;;;5.75;3.33;;;15.50;99.90;;;;;;4872791;29;20326;-69
2023/05/20 05:51:01;;;;;;;6.15;3.40;;;15.50;99.90;;;;;;4873836;29;20167;-69
2023/05/20 05:53:27;;;;;;;5.95;3.78;;;15.50;99.90;;;;;;4873100;29;20039;-71
2023/05/20 05:55:53;;;;;;;4.25;3.08;;;15.50;99.90;;;;;;4873388;29;20029;-70
2023/05/20 05:58:19;;;;;;;6.55;3.65;;;15.60;99.90;;;;;;4873133;29;20326;-69
2023/05/20 06:00:44;;;;;;;5.13;3.67;;;15.70;99.90;;;;;;4907028;29;20095;-69
2023/05/20 06:03:10;;;;;;;6.60;3.80;;;15.80;99.90;;;;;;4890535;29;20052;-70
2023/05/20 06:05:37;;;;;;;4.80;3.40;;;15.90;99.90;;;;;;4854151;29;20101;-70
2023/05/20 06:08:02;;;;;;;4.90;3.65;;;16.00;99.90;;;;;;4871102;29;20037;-71
2023/05/20 06:10:30;;;;;;;6.70;3.60;;;15.90;99.90;;;;;;4856664;29;20112;-69
2023/05/20 06:12:55;;;;;;;8.48;4.10;;;15.90;99.90;;;;;;4871095;29;20029;-69
2023/05/20 06:15:21;;;;;;;5.40;3.75;;;16.00;99.90;;;;;;4854702;29;20342;-70
2023/05/20 06:17:47;;;;;;;6.28;3.53;;;15.90;99.90;;;;;;4870417;29;20042;-70
2023/05/20 06:20:14;;;;;;;5.70;3.75;;;16.00;99.90;;;;;;4857226;29;20022;-70
2023/05/20 06:22:40;;;;;;;6.07;3.88;;;16.00;99.90;;;;;;4870626;29;20029;-69
2023/05/20 06:25:06;;;;;;;5.18;3.47;;;16.00;99.90;;;;;;4870762;29;20311;-69
2023/05/20 06:27:34;;;;;;;6.38;4.03;;;16.20;99.90;;;;;;4853789;29;20061;-70
2023/05/20 06:30:00;;;;;;;5.88;3.92;;;16.30;99.90;;;;;;4853954;29;20082;-69
2023/05/20 06:32:26;;;;;;;7.72;3.65;;;16.50;99.90;;;;;;4854323;29;20139;-70
2023/05/20 06:34:54;;;;;;;4.72;3.42;;;16.60;99.90;;;;;;4870182;29;20082;-69
2023/05/20 06:37:23;;;;;;;5.57;3.67;;;16.70;99.90;;;;;;4858275;29;20037;-70
2023/05/20 06:39:52;;;;;;;5.45;3.80;;;16.70;99.90;;;;;;4853695;29;20045;-69
2023/05/20 06:42:20;;;;;;;6.85;4.03;;;17.00;99.90;;;;;;4854246;29;20036;-72
2023/05/20 06:44:47;;;;;;;9.15;3.47;;;17.10;99.90;;;;;;4853647;29;20060;-71
2023/05/20 06:47:20;;;;;;;6.30;3.70;;;17.20;99.90;;;;;;4854194;29;20078;-72
2023/05/20 06:49:47;;;;;;;4.40;3.35;;;17.40;99.90;;;;;;4853687;29;20041;-70
2023/05/20 06:52:17;;;;;;;6.05;3.40;;;17.60;99.90;;;;;;4853906;29;20046;-72
2023/05/20 06:54:45;;;;;;;4.95;3.22;;;17.80;99.90;;;;;;4860630;29;20229;-71
2023/05/20 06:57:11;;;;;;;5.20;3.50;;;18.00;99.20;;;;;;4861474;29;20033;-69
2023/05/20 06:59:37;;;;;;;5.95;3.53;;;17.80;98.70;;;;;;4880324;29;20255;-70
2023/05/20 07:02:04;;;;;;;6.07;3.67;;;17.90;99.20;;;;;;4853675;29;20041;-69
2023/05/20 07:04:30;;;;;;;5.00;3.47;;;18.10;98.60;;;;;;4858585;29;20032;-70
2023/05/20 07:06:57;;;;;;;6.22;3.53;;;18.20;98.00;;;;;;4878658;29;20060;-70
2023/05/20 07:09:23;;;;;;;6.90;3.53;;;18.20;98.00;;;;;;4867303;29;20089;-70
2023/05/20 07:11:49;;;;;;;6.90;3.80;;;18.20;98.30;;;;;;4867124;29;20044;-70
2023/05/20 07:14:15;;;;;;;5.47;3.47;;;18.10;98.40;;;;;;4853914;29;20034;-70
2023/05/20 07:16:41;;;;;;;6.32;4.00;;;18.20;97.70;;;;;;4853261;29;20354;-70
2023/05/20 07:19:08;;;;;;;6.28;4.18;;;18.10;97.80;;;;;;4870044;29;20048;-69
2023/05/20 07:21:33;;;;;;;6.28;3.90;;;18.00;98.10;;;;;;4864667;29;20021;-69
2023/05/20 07:24:11;;;;;;;5.32;3.78;;;18.10;97.80;;;;;;4889218;29;20040;-69
2023/05/20 07:26:36;;;;;;;9.57;4.07;;;18.00;98.20;;;;;;4888191;29;20041;-70
2023/05/20 07:29:03;;;;;;;6.57;4.07;;;18.10;99.60;;;;;;4871875;29;20040;-70
2023/05/20 07:31:30;;;;;;;6.53;3.67;;;17.90;97.80;;;;;;4872205;29;20525;-71
2023/05/20 07:33:56;;;;;;;6.07;3.60;;;17.80;97.70;;;;;;4888592;29;20082;-70
2023/05/20 07:36:22;;;;;;;5.55;3.78;;;17.80;98.00;;;;;;4888862;29;20033;-70
2023/05/20 07:38:51;;;;;;;8.13;4.00;;;17.70;98.10;;;;;;4858281;29;20026;-70
2023/05/20 07:41:17;;;;;;;7.15;4.07;;;17.70;98.20;;;;;;4853533;29;20029;-70
2023/05/20 07:43:43;;;;;;;5.30;3.88;;;17.80;98.00;;;;;;4853133;29;20080;-70
2023/05/20 07:46:10;;;;;;;7.03;3.88;;;17.80;97.70;;;;;;4853572;29;20030;-70
2023/05/20 07:48:36;;;;;;;5.10;3.40;;;17.80;98.00;;;;;;4852924;29;20040;-71
2023/05/20 07:51:01;;;;;;;5.55;3.78;;;18.10;97.50;;;;;;4853780;29;20033;-70
2023/05/20 07:53:28;;;;;;;4.40;3.17;;;18.40;97.10;;;;;;4853444;29;20025;-71
2023/05/20 07:55:55;;;;;;;5.93;3.95;;;18.60;97.20;;;;;;4853114;29;20609;-71
2023/05/20 07:58:21;;;;;;;6.03;3.70;;;19.00;96.40;;;;;;4872715;29;20036;-71
2023/05/20 08:00:47;;;;;;;5.70;3.60;;;19.30;95.80;;;;;;4875195;29;20025;-70
2023/05/20 08:03:13;;;;;;;5.35;3.38;;;19.50;95.50;;;;;;4875048;29;20108;-71
2023/05/20 08:05:49;;;;;;;5.63;3.33;;;19.70;94.70;;;;;;4866590;29;20037;-71
2023/05/20 08:08:16;;;;;;;4.88;3.85;;;19.70;94.70;;;;;;4888770;29;20041;-70
2023/05/20 08:10:51;;;;;;;5.45;3.92;;;20.10;94.40;;;;;;4871696;29;20040;-71
2023/05/20 08:13:18;;;;;;;5.50;3.55;;;20.40;94.20;;;;;;4859443;29;20030;-70
2023/05/20 08:15:44;;;;;;;5.25;3.80;;;20.20;93.50;;;;;;4872573;29;20033;-70
2023/05/20 08:18:10;;;;;;;5.22;3.45;;;20.10;93.80;;;;;;4856799;29;20029;-69
2023/05/20 08:20:36;;;;;;;6.00;3.40;;;20.30;93.30;;;;;;4856082;29;20113;-70
2023/05/20 08:23:02;;;;;;;4.60;3.15;;;20.20;93.30;;;;;;4872919;29;20034;-69
2023/05/20 08:25:28;;;;;;;6.97;3.55;;;20.00;93.40;;;;;;4873139;29;20066;-70
2023/05/20 08:27:54;;;;;;;4.85;3.55;;;19.90;93.80;;;;;;4856140;29;20029;-70
2023/05/20 08:30:20;;;;;;;4.95;3.78;;;19.80;93.60;;;;;;4856506;29;20044;-69
2023/05/20 08:32:47;;;;;;;5.30;3.63;;;20.00;93.60;;;;;;4872532;29;20042;-69
2023/05/20 08:35:13;;;;;;;5.45;3.50;;;20.10;93.70;;;;;;4856470;29;20029;-70
2023/05/20 08:37:39;;;;;;;5.35;3.50;;;20.30;93.40;;;;;;4855949;29;20079;-69
2023/05/20 08:40:05;;;;;;;4.75;3.58;;;20.40;93.30;;;;;;4873267;29;20037;-70
2023/05/20 08:42:34;;;;;;;6.85;3.80;;;20.50;92.90;;;;;;4856379;29;20053;-70
2023/05/20 08:45:01;;;;;;;5.95;4.03;;;20.20;93.10;;;;;;4855717;29;20033;-70
2023/05/20 08:47:29;;;;;;;6.05;3.45;;;20.40;92.80;;;;;;4856066;29;20156;-70
2023/05/20 08:49:54;;;;;;;4.60;3.25;;;20.70;92.60;;;;;;4872182;29;20045;-71
2023/05/20 08:52:21;;;;;;;4.90;3.40;;;21.00;91.80;;;;;;4872563;29;20025;-68
2023/05/20 08:54:49;;;;;;;4.85;3.40;;;20.90;91.60;;;;;;4855657;29;20045;-69
2023/05/20 08:57:15;;;;;;;5.50;3.65;;;21.00;91.30;;;;;;4881294;29;20033;-69
2023/05/20 08:59:42;;;;;;;6.47;3.65;;;21.00;91.00;;;;;;4876469;29;20252;-69
2023/05/20 09:02:09;;;;;;;5.70;3.70;;;21.00;91.30;;;;;;4872108;29;20114;-69
2023/05/20 09:04:36;;;;;;;6.40;3.35;;;21.30;90.90;;;;;;4872469;29;20453;-69
2023/05/20 09:07:02;;;;;;;7.18;3.65;;;21.30;90.60;;;;;;4871779;29;20093;-69
2023/05/20 09:09:29;;;;;;;5.65;3.20;;;21.80;90.80;;;;;;4868301;29;20083;-69
2023/05/20 09:11:55;;;;;;;3.85;2.90;;;21.90;90.00;;;;;;4877125;29;20024;-69
2023/05/20 09:14:20;;;;;;;4.47;3.35;;;21.80;90.30;;;;;;4878152;29;20033;-69
2023/05/20 09:16:50;;;;;;;4.57;3.58;;;21.90;90.50;;;;;;4871452;29;20315;-70
2023/05/20 09:19:16;;;;;;;6.68;3.50;;;22.00;90.30;;;;;;4863037;29;20075;-69
2023/05/20 09:21:42;;;;;;;5.38;3.28;;;22.10;90.40;;;;;;4888149;29;20029;-69
2023/05/20 09:24:08;;;;;;;6.68;3.50;;;21.90;90.20;;;;;;4890355;29;20041;-69
2023/05/20 09:26:34;;;;;;;6.97;3.53;;;21.70;90.80;;;;;;4890438;29;20059;-70
2023/05/20 09:28:59;;;;;;;4.30;3.20;;;21.70;90.30;;;;;;4890030;29;20296;-69
2023/05/20 09:31:31;;;;;;;6.10;3.50;;;21.80;90.20;;;;;;4890356;29;20081;-70
2023/05/20 09:33:58;;;;;;;3.97;3.40;;;21.70;90.10;;;;;;4889930;29;20043;-70
2023/05/20 09:36:30;;;;;;;5.82;3.85;;;21.80;90.10;;;;;;4890304;29;20033;-70
2023/05/20 09:39:02;;;;;;;6.32;4.28;;;22.00;89.40;;;;;;4889714;29;20065;-69
2023/05/20 09:41:43;;;;;;;5.00;3.63;;;22.10;89.30;;;;;;4890428;29;20318;-69
2023/05/20 09:44:10;;;;;;;6.28;4.00;;;22.10;88.90;;;;;;4890238;29;20025;-69
2023/05/20 09:46:37;;;;;;;5.05;3.55;;;22.20;88.60;;;;;;4890143;29;20044;-70
2023/05/20 09:49:06;;;;;;;5.40;3.60;;;22.50;88.50;;;;;;4879558;29;20046;-70
2023/05/20 09:51:35;;;;;;;5.10;3.80;;;22.60;86.60;;;;;;4887957;29;20108;-71
2023/05/20 09:54:02;;;;;;;3.97;3.35;;;22.50;87.00;;;;;;4889610;29;20531;-76
2023/05/20 09:56:29;;;;;;;4.60;3.35;;;22.90;87.30;;;;;;4889675;29;20039;-71
2023/05/20 09:58:58;;;;;;;4.55;2.97;;;23.20;86.60;;;;;;4889759;29;20037;-69
2023/05/20 10:01:24;;;;;;;6.85;3.70;;;23.40;86.30;;;;;;4889574;29;20141;-70
2023/05/20 10:03:51;;;;;;;5.28;3.35;;;23.40;84.90;;;;;;4881568;29;20041;-70
2023/05/20 10:06:36;;;;;;;4.57;3.40;;;23.10;85.70;;;;;;4886168;29;20045;-70
2023/05/20 10:09:23;;;;;;;4.30;3.45;;;23.20;85.90;;;;;;4888796;29;20049;-71
2023/05/20 10:12:09;;;;;;;4.72;3.53;;;23.30;86.00;;;;;;4872131;29;20346;-71
2023/05/20 10:15:23;;;;;;;4.07;3.20;;;23.00;85.80;;;;;;4871008;29;20037;-68
2023/05/20 10:18:00;;;;;;;5.00;4.03;;;22.80;86.30;;;;;;4825526;29;20267;-70
2023/05/20 10:20:26;;;;;;;5.15;3.30;;;22.70;86.60;;;;;;4872305;29;20322;-70
2023/05/20 10:22:59;;;;;;;6.35;3.65;;;22.60;87.20;;;;;;4888769;29;20025;-70
2023/05/20 10:25:27;;;;;;;4.65;3.70;;;22.60;87.40;;;;;;4889451;29;20100;-71
2023/05/20 10:28:03;;;;;;;;;;;22.70;87.10;;;;;;4889669;29;20036;-71
2023/05/20 10:30:29;;;;;;;5.22;3.40;;;22.80;87.10;;;;;;4889595;29;19936;-70
2023/05/20 10:33:03;;;;;;;3.95;3.00;;;22.60;87.10;;;;;;4889055;29;20033;-70
2023/05/20 10:35:29;;;;;;;5.03;3.30;;;23.00;86.60;;;;;;4889535;29;20069;-68
2023/05/20 10:38:09;;;;;;;4.38;3.22;;;23.20;85.40;;;;;;4888937;29;20251;-70
2023/05/20 10:40:35;;;;;;;4.95;3.08;;;23.50;84.60;;;;;;4889289;29;20048;-70
2023/05/20 10:43:15;;;;;;;7.32;3.70;;;23.60;83.30;;;;;;4888633;29;20033;-70
2023/05/20 10:45:54;;;;;;;4.38;3.00;;;23.80;83.30;;;;;;4878209;29;20034;-71
2023/05/20 10:48:27;;;;;;;4.13;3.10;;;23.80;83.00;;;;;;4871030;29;20085;-70
2023/05/20 10:50:58;;;;;;;5.63;3.20;;;24.00;82.40;;;;;;4870313;29;20048;-69
2023/05/20 10:53:26;;;;;;;5.10;3.35;;;24.30;82.10;;;;;;4870730;29;20033;-70
2023/05/20 10:55:56;;;;;;;4.45;3.00;;;24.40;81.30;;;;;;4870301;29;20060;-70
2023/05/20 10:58:23;;;;;;;3.80;2.90;;;24.50;81.80;;;;;;4882937;29;20219;-71
2023/05/20 11:00:52;;;;;;;5.38;3.08;;;24.80;80.80;;;;;;4882416;29;20024;-71
2023/05/20 11:03:20;;;;;;;4.28;3.17;;;25.10;80.00;;;;;;4881746;29;20063;-70
2023/05/20 11:05:47;;;;;;;5.20;3.78;;;24.90;80.00;;;;;;4878209;29;20041;-70
2023/05/20 11:08:13;;;;;;;5.10;2.90;;;25.20;79.50;;;;;;4869886;29;20033;-70
2023/05/20 11:10:40;;;;;;;4.07;2.70;;;25.40;78.80;;;;;;4869615;29;20124;-70
2023/05/20 11:13:07;;;;;;;4.55;2.92;;;25.80;77.90;;;;;;4853611;29;20234;-70
2023/05/20 11:15:35;;;;;;;4.90;3.50;;;26.30;76.90;;;;;;4869253;29;20013;-70
2023/05/20 11:18:02;;;;;;;4.68;2.80;;;26.40;76.30;;;;;;4877389;29;20216;-70
2023/05/20 11:20:28;;;;;;;4.87;2.73;;;26.80;74.80;;;;;;4869998;29;20041;-70
2023/05/20 11:22:55;;;;;;;4.47;3.00;;;27.30;74.90;;;;;;4871337;29;20045;-69
2023/05/20 11:25:25;;;;;;;4.63;2.63;;;27.60;72.30;;;;;;4889026;29;20041;-71
2023/05/20 11:27:53;;;;;;;4.95;2.38;;;27.60;71.40;;;;;;4888087;29;20036;-70
2023/05/20 11:30:19;;;;;;;3.67;2.17;;;27.60;70.60;;;;;;4877150;29;20116;-70
2023/05/20 11:33:02;;;;;;;4.30;2.30;;;27.80;71.50;;;;;;4873993;29;21382;-70
2023/05/20 11:35:31;;;;;;;4.60;2.50;;;28.10;69.80;;;;;;4880420;29;20045;-70
2023/05/20 11:38:01;;;;;;;4.63;2.85;;;28.40;70.20;;;;;;4881216;29;20227;-70
2023/05/20 11:40:28;;;;;;;5.07;3.50;;;28.20;70.20;;;;;;4874014;29;20041;-69
2023/05/20 11:42:56;;;;;;;4.97;2.80;;;27.60;71.00;;;;;;4873072;29;20092;-70
2023/05/20 11:45:22;;;;;;;3.92;2.72;;;28.00;71.60;;;;;;4873946;29;20037;-70
2023/05/20 11:48:01;;;;;;;5.25;2.60;;;28.10;70.10;;;;;;4841676;29;20037;-70
2023/05/20 11:50:27;;;;;;;4.68;2.45;;;28.10;69.00;;;;;;4873851;29;20041;-71
2023/05/20 11:52:57;;;;;;;6.13;2.75;;;28.10;70.10;;;;;;4872945;29;20044;-71
2023/05/20 11:55:23;;;;;;;4.35;2.80;;;27.70;69.80;;;;;;4873397;29;20076;-70
2023/05/20 11:57:50;;;;;;;5.15;3.10;;;27.40;70.30;;;;;;4887906;29;20025;-71
2023/05/20 12:00:16;;;;;;;6.25;3.00;;;27.10;70.80;;;;;;4883181;29;20038;-70
2023/05/20 12:02:43;;;;;;;6.13;3.10;;;27.00;71.10;;;;;;4872966;29;20041;-71
2023/05/20 12:05:09;;;;;;;4.50;2.88;;;26.80;72.40;;;;;;4872957;29;20044;-70
2023/05/20 12:07:35;;;;;;;3.78;2.72;;;27.00;72.90;;;;;;4873023;29;20029;-71
2023/05/20 12:10:02;;;;;;;4.20;2.95;;;27.10;72.00;;;;;;4872948;29;20038;-70
2023/05/20 12:12:28;;;;;;;4.70;3.08;;;27.20;71.80;;;;;;4881690;29;20073;-69
2023/05/20 12:14:54;;;;;;;12.60;3.72;;;27.30;71.00;;;;;;4872446;29;20120;-71
2023/05/20 12:17:20;;;;;;;5.53;3.00;;;27.90;70.50;;;;;;4873168;29;20052;-69
2023/05/20 12:19:45;;;;;;;5.10;2.72;;;29.00;69.60;;;;;;4873061;29;20038;-70
2023/05/20 12:22:11;;;;;;;5.20;3.17;;;30.50;67.90;;;;;;4872388;29;20052;-71
2023/05/20 12:24:37;;;;;;;4.00;2.60;;;32.20;64.10;;;;;;4872742;29;20266;-71
2023/05/20 12:27:05;;;;;;;3.65;2.63;;;33.40;62.70;;;;;;4872470;29;20030;-71
2023/05/20 12:29:31;;;;;;;;;;;34.10;60.30;;;;;;4873499;29;20057;-71
2023/05/20 12:31:57;;;;;;;4.75;2.38;;;34.30;59.30;;;;;;4872546;29;19958;-71
2023/05/20 12:34:22;;;;;;;3.88;2.45;;;33.90;59.10;;;;;;4873032;29;20306;-71
2023/05/20 12:36:48;;;;;;;3.20;2.50;;;33.10;59.50;;;;;;4872685;29;20081;-70
2023/05/20 12:39:16;;;;;;;3.50;2.67;;;32.90;60.20;;;;;;4872240;29;20068;-71
2023/05/20 12:41:42;;;;;;;;;;;32.50;60.40;;;;;;4873311;29;20045;-71
2023/05/20 12:44:08;;;;;;;5.30;2.70;;;32.00;61.10;;;;;;4885418;29;19942;-71
2023/05/20 12:46:35;;;;;;;3.85;2.67;;;31.10;62.10;;;;;;4891467;29;20068;-71
2023/05/20 12:49:01;;;;;;;3.83;2.90;;;30.20;62.60;;;;;;4890580;29;20037;-71
2023/05/20 12:51:27;;;;;;;3.35;2.53;;;29.70;64.20;;;;;;4891420;29;20039;-70
2023/05/20 12:53:53;;;;;;;5.57;2.85;;;30.10;63.60;;;;;;4890697;29;20086;-73
2023/05/20 12:56:18;;;;;;;3.95;2.60;;;30.10;63.60;;;;;;4889587;29;20333;-72
2023/05/20 12:58:44;;;;;;;7.38;2.80;;;29.60;63.60;;;;;;4881614;29;20037;-71
2023/05/20 13:01:10;;;;;;;2.88;2.45;;;29.00;63.70;;;;;;4871710;29;20335;-71
2023/05/20 13:03:36;;;;;;;5.22;2.60;;;28.70;64.00;;;;;;4858540;29;20082;-70
2023/05/20 13:06:02;;;;;;;4.65;2.60;;;29.00;64.90;;;;;;4871856;29;20096;-70
2023/05/20 13:08:28;;;;;;;3.45;2.50;;;29.60;64.50;;;;;;4872017;29;20041;-70
2023/05/20 13:10:54;;;;;;;4.38;2.30;;;29.90;62.70;;;;;;4871808;29;20036;-73
2023/05/20 13:13:20;;;;;;;4.00;2.40;;;31.40;61.40;;;;;;4881399;29;20100;-71
2023/05/20 13:15:50;;;;;;;4.05;2.30;;;33.70;58.60;;;;;;4875231;29;20022;-70
2023/05/20 13:18:16;;;;;;;4.93;1.95;;;35.60;56.60;;;;;;4879496;29;20042;-69
2023/05/20 13:20:45;;;;;;;2.60;1.95;;;37.80;55.00;;;;;;4871760;29;20037;-69
2023/05/20 13:23:11;;;;;;;4.47;2.13;;;38.50;52.10;;;;;;4871723;29;20033;-69
2023/05/20 13:25:37;;;;;;;4.30;1.92;;;37.60;52.60;;;;;;4871685;29;20057;-69
2023/05/20 13:28:04;;;;;;;5.40;2.53;;;37.50;52.70;;;;;;4871390;29;20216;-69
2023/05/20 13:30:29;;;;;;;3.25;2.00;;;37.30;52.80;;;;;;4872144;29;20053;-71
2023/05/20 13:32:55;;;;;;;3.72;1.98;;;36.60;52.60;;;;;;4871178;29;20037;-70
2023/05/20 13:35:21;;;;;;;2.53;2.03;;;35.60;53.50;;;;;;4886055;29;20028;-71
2023/05/20 13:37:47;;;;;;;2.95;1.80;;;35.40;53.60;;;;;;4890408;29;20033;-71
2023/05/20 13:40:12;;;;;;;4.65;1.85;;;35.90;52.70;;;;;;4890049;29;20330;-70
2023/05/20 13:42:38;;;;;;;3.72;2.00;;;36.20;52.50;;;;;;4890126;29;20208;-71
2023/05/20 13:45:05;;;;;;;3.08;2.05;;;36.50;53.10;;;;;;4889532;29;20029;-69
2023/05/20 13:47:31;;;;;;;3.13;2.00;;;38.00;51.40;;;;;;4890168;29;20043;-70
2023/05/20 13:49:56;;;;;;;2.97;1.83;;;39.30;50.30;;;;;;4889761;29;20052;-71
2023/05/20 13:52:22;;;;;;;5.78;1.80;;;40.40;49.20;;;;;;4889918;29;20033;-71
2023/05/20 13:54:48;;;;;;;3.97;1.90;;;40.40;48.60;;;;;;4888946;29;20084;-71
2023/05/20 13:57:15;;;;;;;2.70;1.60;;;39.90;47.90;;;;;;4889386;29;20108;-70
2023/05/20 13:59:40;;;;;;;2.93;1.60;;;38.60;48.60;;;;;;4889993;29;20041;-69
2023/05/20 14:02:06;;;;;;;3.10;1.98;;;36.90;50.00;;;;;;4889284;29;20522;-69
2023/05/20 14:04:38;;;;;;;3.47;2.10;;;34.90;51.50;;;;;;4881934;29;20040;-68
2023/05/20 14:07:06;;;;;;;4.05;1.92;;;32.80;54.60;;;;;;4889479;29;20047;-69
2023/05/20 14:09:32;;;;;;;3.25;2.30;;;32.20;55.20;;;;;;4884406;29;20196;-69
2023/05/20 14:11:58;;;;;;;4.07;2.13;;;32.00;55.50;;;;;;4882703;29;20073;-69
2023/05/20 14:14:23;;;;;;;3.20;2.35;;;31.30;56.30;;;;;;4871237;29;20029;-70
2023/05/20 14:16:49;;;;;;;4.53;2.50;;;30.50;57.90;;;;;;4870876;29;20037;-70
2023/05/20 14:19:15;;;;;;;2.78;2.22;;;30.00;58.00;;;;;;4870671;29;20331;-70
2023/05/20 14:21:41;;;;;;;2.72;1.92;;;30.10;58.50;;;;;;4870906;29;20044;-71
2023/05/20 14:24:06;;;;;;;3.15;2.10;;;32.00;56.80;;;;;;4870118;29;20037;-71
2023/05/20 14:26:33;;;;;;;2.85;1.92;;;33.50;55.00;;;;;;4871116;29;20041;-70
2023/05/20 14:28:59;;;;;;;3.08;2.03;;;34.40;54.00;;;;;;4870520;29;20085;-71
2023/05/20 14:31:26;;;;;;;3.25;2.10;;;33.80;53.40;;;;;;4870875;29;20126;-69
2023/05/20 14:33:52;;;;;;;4.60;2.17;;;32.80;54.00;;;;;;4870868;29;20092;-69
2023/05/20 14:36:17;;;;;;;4.18;2.20;;;32.50;54.80;;;;;;4870042;29;20033;-69
2023/05/20 14:38:43;;;;;;;3.35;1.70;;;33.10;54.60;;;;;;4870767;29;20041;-69
2023/05/20 14:41:09;;;;;;;3.13;2.00;;;34.00;53.90;;;;;;4870388;29;20057;-70
2023/05/20 14:43:35;;;;;;;2.28;1.88;;;34.50;52.70;;;;;;4870679;29;20188;-70
2023/05/20 14:46:02;;;;;;;3.03;2.22;;;33.80;53.40;;;;;;4869817;29;20069;-68
2023/05/20 14:48:27;;;;;;;4.10;2.20;;;33.20;54.00;;;;;;4870311;29;20138;-70
2023/05/20 14:50:53;;;;;;;2.63;1.80;;;32.60;54.60;;;;;;4863358;29;20036;-70
2023/05/20 14:53:20;;;;;;;3.67;2.17;;;31.90;55.40;;;;;;4888607;29;20408;-69
2023/05/20 14:55:45;;;;;;;4.30;2.00;;;31.30;55.70;;;;;;4872439;29;20108;-69
2023/05/20 14:58:11;;;;;;;5.10;2.50;;;31.00;56.40;;;;;;4873270;29;20319;-68
2023/05/20 15:00:38;;;;;;;4.28;2.20;;;31.70;55.60;;;;;;4870136;29;20025;-69
2023/05/20 15:03:03;;;;;;;3.90;2.05;;;33.60;54.20;;;;;;4869826;29;20057;-69
2023/05/20 15:05:29;;;;;;;3.28;2.15;;;35.20;52.70;;;;;;4870312;29;20316;-70
2023/05/20 15:07:56;;;;;;;4.22;2.20;;;35.20;51.90;;;;;;4870109;29;20041;-70
2023/05/20 15:10:22;;;;;;;4.93;1.92;;;34.20;52.80;;;;;;4869525;29;20049;-70
2023/05/20 15:12:47;;;;;;;3.75;2.10;;;32.20;54.30;;;;;;4870423;29;20077;-69
2023/05/20 15:15:13;;;;;;;3.33;2.10;;;31.10;56.10;;;;;;4874436;29;20036;-70
2023/05/20 15:17:39;;;;;;;3.05;2.00;;;30.30;56.30;;;;;;4878317;29;20059;-70
2023/05/20 15:20:05;;;;;;;3.42;1.98;;;30.10;57.40;;;;;;4873246;29;20029;-69
2023/05/20 15:22:31;;;;;;;4.68;2.72;;;30.00;57.70;;;;;;4879398;29;20036;-69
2023/05/20 15:24:57;;;;;;;4.32;2.35;;;29.80;57.70;;;;;;4882963;29;20032;-70
2023/05/20 15:27:22;;;;;;;5.15;2.50;;;29.70;58.70;;;;;;4870490;29;20044;-70
2023/05/20 15:29:48;;;;;;;4.25;2.40;;;29.80;58.20;;;;;;4870444;29;20038;-70
2023/05/20 15:32:14;;;;;;;4.45;2.30;;;29.60;58.30;;;;;;4869867;29;20037;-70
2023/05/20 15:34:39;;;;;;;5.60;2.40;;;29.50;58.20;;;;;;4853784;29;20097;-70
2023/05/20 15:37:05;;;;;;;3.90;2.53;;;29.20;58.50;;;;;;4869369;29;20509;-69
2023/05/20 15:39:36;;;;;;;3.20;2.03;;;28.80;59.80;;;;;;4869855;29;20029;-70
2023/05/20 15:42:02;;;;;;;4.80;2.63;;;28.90;58.80;;;;;;4875133;29;20378;-69
2023/05/20 15:44:28;;;;;;;3.20;2.35;;;28.90;59.10;;;;;;4888382;29;20021;-69
2023/05/20 15:46:54;;;;;;;3.30;2.17;;;29.00;58.90;;;;;;4888282;29;20061;-70
2023/05/20 15:49:20;;;;;;;4.05;2.30;;;29.20;58.70;;;;;;4887764;29;20097;-68
2023/05/20 15:51:46;;;;;;;3.38;2.17;;;29.10;58.40;;;;;;4888339;29;20350;-69
2023/05/20 15:54:11;;;;;;;3.03;1.95;;;29.20;58.70;;;;;;4887977;29;20033;-68
2023/05/20 15:56:37;;;;;;;5.35;2.30;;;30.00;57.90;;;;;;4886268;29;20047;-70
2023/05/20 15:59:03;;;;;;;3.28;2.20;;;30.40;57.20;;;;;;4869989;29;20053;-69
2023/05/20 16:01:29;;;;;;;4.43;2.03;;;30.30;57.30;;;;;;4869391;29;20045;-69
2023/05/20 16:03:55;;;;;;;5.35;2.45;;;30.10;57.70;;;;;;4869833;29;20104;-69
2023/05/20 16:06:20;;;;;;;3.50;2.33;;;30.70;57.00;;;;;;4869338;29;20064;-70
2023/05/20 16:08:46;;;;;;;3.88;2.60;;;32.10;56.30;;;;;;4869776;29;20060;-70
2023/05/20 16:11:12;;;;;;;3.50;2.08;;;33.30;54.20;;;;;;4869631;29;20034;-69
2023/05/20 16:13:37;;;;;;;4.47;2.20;;;34.50;53.40;;;;;;4869836;29;20048;-71
2023/05/20 16:16:03;;;;;;;3.40;2.20;;;35.40;52.20;;;;;;4853356;29;20044;-70
2023/05/20 16:18:30;;;;;;;2.67;2.10;;;35.60;52.10;;;;;;4870442;29;20304;-70
2023/05/20 16:20:56;;;;;;;5.32;2.08;;;35.50;51.70;;;;;;4873274;29;20041;-69
2023/05/20 16:23:23;;;;;;;3.05;2.25;;;35.00;52.40;;;;;;4872624;29;20108;-70
2023/05/20 16:25:48;;;;;;;3.35;2.15;;;35.10;52.40;;;;;;4872805;29;20040;-69
2023/05/20 16:28:14;;;;;;;3.97;2.38;;;35.30;52.40;;;;;;4855056;29;20049;-69
2023/05/20 16:30:40;;;;;;;4.57;2.33;;;34.50;52.60;;;;;;4882448;29;20048;-70
2023/05/20 16:33:06;;;;;;;5.88;2.17;;;34.40;53.10;;;;;;4883837;29;20033;-75
2023/05/20 16:35:32;;;;;;;2.70;2.03;;;35.20;52.20;;;;;;4873403;29;20104;-70
2023/05/20 16:37:58;;;;;;;3.72;2.10;;;35.30;52.20;;;;;;4872905;29;20045;-71
2023/05/20 16:40:25;;;;;;;4.50;2.17;;;34.20;52.60;;;;;;4872274;29;20323;-70
2023/05/20 16:42:50;;;;;;;5.32;2.13;;;33.00;54.40;;;;;;4872532;29;20018;-70
2023/05/20 16:45:16;;;;;;;4.65;2.63;;;32.30;54.90;;;;;;4871721;29;20318;-70
2023/05/20 16:47:42;;;;;;;5.50;2.22;;;31.70;55.70;;;;;;4872268;29;20037;-69
2023/05/20 16:50:08;;;;;;;4.50;2.97;;;31.10;56.60;;;;;;4871941;29;20040;-69
2023/05/20 16:52:36;;;;;;;8.43;3.08;;;30.40;57.30;;;;;;4891281;29;20052;-69
2023/05/20 16:55:03;;;;;;;4.30;3.15;;;29.80;58.10;;;;;;4891092;29;20050;-70
2023/05/20 16:57:29;;;;;;;3.47;2.58;;;29.20;59.40;;;;;;4881026;29;20024;-70
2023/05/20 16:59:56;;;;;;;7.88;3.50;;;28.60;60.40;;;;;;4872105;29;20037;-70
2023/05/20 17:02:22;;;;;;;7.80;3.27;;;28.20;61.40;;;;;;4871330;29;20114;-69
2023/05/20 17:04:48;;;;;;;3.72;3.00;;;27.80;62.30;;;;;;4873278;29;20041;-70
2023/05/20 17:07:14;;;;;;;4.70;3.10;;;27.30;62.90;;;;;;4871727;29;20037;-70
2023/05/20 17:09:40;;;;;;;3.35;2.75;;;27.10;64.10;;;;;;4876950;29;20052;-70
2023/05/20 17:12:06;;;;;;;5.72;3.25;;;26.90;64.60;;;;;;4871310;29;20025;-71
2023/05/20 17:14:32;;;;;;;7.20;4.15;;;26.70;65.30;;;;;;4871607;29;20041;-70
2023/05/20 17:16:57;;;;;;;8.02;3.88;;;26.40;67.40;;;;;;4871893;29;20288;-70
2023/05/20 17:19:23;;;;;;;6.82;4.70;;;26.30;68.40;;;;;;4871786;29;20090;-71
2023/05/20 17:21:49;;;;;;;7.10;4.40;;;26.20;68.80;;;;;;4871932;29;20359;-71
2023/05/20 17:24:15;;;;;;;6.10;4.70;;;26.00;69.20;;;;;;4871623;29;20041;-71
2023/05/20 17:26:42;;;;;;;6.45;4.72;;;;;;;;;;4856515;29;20029;-72
2023/05/20 17:29:07;;;;;;;7.72;4.88;;;25.70;69.50;;;;;;4875927;29;20257;-71
2023/05/20 17:31:33;;;;;;;7.43;4.75;;;25.50;70.60;;;;;;4874191;29;20093;-71
2023/05/20 17:33:59;;;;;;;6.93;5.28;;;25.40;70.90;;;;;;4877063;29;20096;-71
2023/05/20 17:36:25;;;;;;;5.95;4.60;;;25.30;71.50;;;;;;4873935;29;20367;-71
2023/05/20 17:38:51;;;;;;;7.70;5.18;;;25.20;71.90;;;;;;4877961;29;20037;-73
2023/05/20 17:41:17;;;;;;;7.72;5.25;;;25.10;72.20;;;;;;4871110;29;20078;-72
2023/05/20 17:43:43;;;;;;;8.93;4.97;;;25.00;72.80;;;;;;4871579;29;20041;-71
2023/05/20 17:46:10;;;;;;;8.60;5.90;;;24.90;73.00;;;;;;4871535;29;20370;-71
2023/05/20 17:48:36;;;;;;;7.38;5.45;;;24.80;73.40;;;;;;4871639;29;20026;-71